sensor_id;sensor_type;location;lat;lon;timestamp;pressure;altitude;pressure_sealevel;temperature;humidity
46223;BME280;31943;51.410;7.564;2024-01-30T05:26:26;101270.28;;;7.79;71.02
46223;BME280;31943;51.410;7.564;2024-01-30T05:29:11;101267.91;;;7.85;70.67
46223;BME280;31943;51.410;7.564;2024-01-30T05:31:57;101265.44;;;7.88;70.70
46223;BME280;31943;51.410;7.564;2024-01-30T05:34:42;101277.66;;;7.90;70.47
46223;BME280;31943;51.410;7.564;2024-01-30T05:37:26;101271.63;;;7.91;70.05
46223;BME280;31943;51.410;7.564;2024-01-30T05:40:11;101270.03;;;7.95;70.04
46223;BME280;31943;51.410;7.564;2024-01-30T05:50:34;101268.78;;;8.08;70.02
46223;BME280;31943;51.410;7.564;2024-01-30T15:08:30;101414.03;;;11.88;66.77
46223;BME280;31943;51.410;7.564;2024-01-30T15:11:14;101426.22;;;11.88;66.63
46223;BME280;31943;51.410;7.564;2024-01-30T15:13:59;101421.09;;;11.91;66.70
46223;BME280;31943;51.410;7.564;2024-01-30T15:16:43;101425.44;;;11.91;66.96
46223;BME280;31943;51.410;7.564;2024-01-30T15:19:28;101422.78;;;11.89;66.15
46223;BME280;31943;51.410;7.564;2024-01-30T15:22:12;101429.72;;;11.88;66.08
46223;BME280;31943;51.410;7.564;2024-01-30T15:25:00;101425.44;;;11.91;65.96
46223;BME280;31943;51.410;7.564;2024-01-30T15:27:44;101421.00;;;11.88;66.01
46223;BME280;31943;51.410;7.564;2024-01-30T15:30:28;101421.78;;;11.85;65.80
46223;BME280;31943;51.410;7.564;2024-01-30T15:33:13;101432.25;;;11.85;65.73
46223;BME280;31943;51.410;7.564;2024-01-30T15:35:57;101440.09;;;11.84;65.68
46223;BME280;31943;51.410;7.564;2024-01-30T15:38:42;101435.69;;;11.83;65.84
46223;BME280;31943;51.410;7.564;2024-01-30T15:41:28;101436.56;;;11.83;65.68
46223;BME280;31943;51.410;7.564;2024-01-30T15:44:12;101438.38;;;11.86;65.87
46223;BME280;31943;51.410;7.564;2024-01-30T15:46:59;101441.72;;;11.80;65.51
46223;BME280;31943;51.410;7.564;2024-01-30T15:49:45;101448.75;;;11.83;65.39
46223;BME280;31943;51.410;7.564;2024-01-30T15:52:30;101443.44;;;11.78;65.58
46223;BME280;31943;51.410;7.564;2024-01-30T15:58:32;101457.22;;;11.73;65.37
46223;BME280;31943;51.410;7.564;2024-01-30T16:01:16;101462.41;;;11.71;65.14
46223;BME280;31943;51.410;7.564;2024-01-30T16:04:00;101465.00;;;11.70;65.72
46223;BME280;31943;51.410;7.564;2024-01-30T16:06:45;101470.25;;;11.71;65.56
46223;BME280;31943;51.410;7.564;2024-01-30T16:09:29;101464.94;;;11.68;65.55
46223;BME280;31943;51.410;7.564;2024-01-30T16:12:14;101474.53;;;11.67;65.58
46223;BME280;31943;51.410;7.564;2024-01-30T16:15:01;101474.47;;;11.66;65.71
46223;BME280;31943;51.410;7.564;2024-01-30T16:17:45;101483.19;;;11.65;65.54
46223;BME280;31943;51.410;7.564;2024-01-30T16:20:30;101478.78;;;11.64;65.68
46223;BME280;31943;51.410;7.564;2024-01-30T16:23:14;101487.56;;;11.66;65.78
46223;BME280;31943;51.410;7.564;2024-01-30T16:25:58;101487.66;;;11.69;65.85
46223;BME280;31943;51.410;7.564;2024-01-30T16:28:43;101496.41;;;11.71;65.92
46223;BME280;31943;51.410;7.564;2024-01-30T16:31:28;101484.97;;;11.67;66.14
46223;BME280;31943;51.410;7.564;2024-01-30T16:34:13;101506.63;;;11.62;66.14
46223;BME280;31943;51.410;7.564;2024-01-30T16:36:57;101516.00;;;11.54;65.47
46223;BME280;31943;51.410;7.564;2024-01-30T16:39:42;101511.44;;;11.46;63.90
46223;BME280;31943;51.410;7.564;2024-01-30T16:42:27;101519.19;;;11.42;63.72
46223;BME280;31943;51.410;7.564;2024-01-30T16:45:14;101521.53;;;11.33;63.15
46223;BME280;31943;51.410;7.564;2024-01-30T16:48:00;101538.50;;;11.17;62.28
46223;BME280;31943;51.410;7.564;2024-01-30T16:50:44;101521.84;;;11.12;62.16
46223;BME280;31943;51.410;7.564;2024-01-30T16:53:29;101540.84;;;11.06;62.04
46223;BME280;31943;51.410;7.564;2024-01-30T16:56:13;101548.53;;;11.01;61.76
46223;BME280;31943;51.410;7.564;2024-01-30T16:58:58;101546.72;;;10.99;61.42
46223;BME280;31943;51.410;7.564;2024-01-30T17:01:43;101554.44;;;10.94;61.08
46223;BME280;31943;51.410;7.564;2024-01-30T17:04:29;101567.38;;;10.91;60.97
46223;BME280;31943;51.410;7.564;2024-01-30T17:07:17;101572.56;;;10.89;60.79
46223;BME280;31943;51.410;7.564;2024-01-30T17:10:01;101566.31;;;10.84;60.61
46223;BME280;31943;51.410;7.564;2024-01-30T17:12:47;101572.31;;;10.80;60.19
46223;BME280;31943;51.410;7.564;2024-01-30T17:15:32;101574.06;;;10.81;60.14
46223;BME280;31943;51.410;7.564;2024-01-30T17:18:20;101580.97;;;10.79;59.54
46223;BME280;31943;51.410;7.564;2024-01-30T17:23:32;101596.25;;;10.67;59.34
46223;BME280;31943;51.410;7.564;2024-01-30T17:26:16;101601.41;;;10.65;59.06
46223;BME280;31943;51.410;7.564;2024-01-30T17:29:00;101603.78;;;10.58;58.99
46223;BME280;31943;51.410;7.564;2024-01-30T17:31:48;101607.19;;;10.55;58.99
46223;BME280;31943;51.410;7.564;2024-01-30T17:34:33;101615.81;;;10.53;59.08
46223;BME280;31943;51.410;7.564;2024-01-30T17:37:23;101620.31;;;10.57;58.81
46223;BME280;31943;51.410;7.564;2024-01-30T17:40:08;101624.59;;;10.55;58.66
46223;BME280;31943;51.410;7.564;2024-01-30T17:42:53;101634.09;;;10.53;58.31
46223;BME280;31943;51.410;7.564;2024-01-30T17:45:38;101632.38;;;10.53;57.93
46223;BME280;31943;51.410;7.564;2024-01-30T17:48:26;101634.59;;;10.42;57.68
46223;BME280;31943;51.410;7.564;2024-01-30T17:51:10;101642.34;;;10.39;57.46
46223;BME280;31943;51.410;7.564;2024-01-30T17:53:56;101652.63;;;10.35;57.46
46223;BME280;31943;51.410;7.564;2024-01-30T17:56:41;101643.72;;;10.29;57.46
46223;BME280;31943;51.410;7.564;2024-01-30T18:06:57;101652.84;;;10.17;57.34
46223;BME280;31943;51.410;7.564;2024-01-30T18:09:43;101658.00;;;10.15;57.15
46223;BME280;31943;51.410;7.564;2024-01-30T18:12:27;101664.03;;;10.13;57.19
46223;BME280;31943;51.410;7.564;2024-01-30T18:15:12;101660.47;;;10.10;57.43
46223;BME280;31943;51.410;7.564;2024-01-30T18:17:56;101669.97;;;10.08;57.65
46223;BME280;31943;51.410;7.564;2024-01-30T18:20:41;101670.81;;;10.07;57.39
46223;BME280;31943;51.410;7.564;2024-01-30T18:23:25;101656.78;;;10.04;57.44
46223;BME280;31943;51.410;7.564;2024-01-30T18:26:12;101664.63;;;10.05;57.54
46223;BME280;31943;51.410;7.564;2024-01-30T18:28:56;101669.84;;;10.05;57.55
46223;BME280;31943;51.410;7.564;2024-01-30T18:31:41;101656.81;;;10.05;57.25
46223;BME280;31943;51.410;7.564;2024-01-30T18:34:25;101677.47;;;9.99;57.41
46223;BME280;31943;51.410;7.564;2024-01-30T18:37:10;101671.25;;;9.96;57.48
46223;BME280;31943;51.410;7.564;2024-01-30T18:39:54;101682.53;;;9.95;57.64
46223;BME280;31943;51.410;7.564;2024-01-30T18:42:44;101687.75;;;9.95;57.91
46223;BME280;31943;51.410;7.564;2024-01-30T18:45:29;101693.69;;;9.90;58.26
46223;BME280;31943;51.410;7.564;2024-01-30T18:48:14;101698.78;;;9.87;58.81
46223;BME280;31943;51.410;7.564;2024-01-30T18:50:58;101699.50;;;9.83;59.43
46223;BME280;31943;51.410;7.564;2024-01-30T18:53:43;101705.44;;;9.79;60.00
46223;BME280;31943;51.410;7.564;2024-01-30T18:56:27;101703.47;;;9.74;60.57
46223;BME280;31943;51.410;7.564;2024-01-30T18:59:13;101707.59;;;9.67;60.77
46223;BME280;31943;51.410;7.564;2024-01-30T19:02:00;101710.00;;;9.62;61.19
46223;BME280;31943;51.410;7.564;2024-01-30T19:04:47;101718.38;;;9.54;61.45
46223;BME280;31943;51.410;7.564;2024-01-30T19:07:32;101717.31;;;9.48;61.40
46223;BME280;31943;51.410;7.564;2024-01-30T19:10:16;101726.03;;;9.49;61.74
46223;BME280;31943;51.410;7.564;2024-01-30T19:13:01;101725.97;;;9.47;61.87
